TXKF/BDA METAR and TAF weather

Enter ICAO airport designator
Station Type Date Time Source
TXKF METAR 2020/02/22 06:55 UTC NOAA

TXKF 220655Z 04016KT 9999 VCSH SCT014 BKN035 OVC084 15/12 Q1013


Station Type Date Time Source
TXKF Decoded METAR 2020/02/22 06:55 UTC NOAA

Bermuda, Bermuda (TXKF) 32-22N 064-41W
Feb 22, 2020 - 01:55 AM EST / 2020.02.22 0655 UTC
Wind: from the NE (040 degrees) at 18 MPH (16 KT):0
Visibility: greater than 7 mile(s):0
Sky conditions: overcast
Weather: showers in the vicinity
Temperature: 59 F (15 C)
Dew Point: 53 F (12 C)
Relative Humidity: 82%
Pressure (altimeter): 29.91 in. Hg (1013 hPa)
ob: TXKF 220655Z 04016KT 9999 VCSH SCT014 BKN035 OVC084 15/12 Q1013
cycle: 7

Station Type Date Time Source
TXKF TAF 2020/02/22 06:42 UTC NOAA

TAF TXKF 220530Z 2206/2306 02018KT 9999 VCSH FEW015 SCT020 BKN040 PROB30
TEMPO 2206/2212 4800 SHRA BKN015 PROB30
TEMPO 2223/2306 3200 SHRA BKN012

Example: see airport list